createdAt,value
2023-04-25T00:00:49.625Z,64.56
2023-04-25T00:05:53.237Z,64.69
2023-04-25T00:10:55.998Z,63.10
2023-04-25T00:15:59.555Z,62.61
2023-04-25T00:21:02.469Z,62.12
2023-04-25T00:26:05.550Z,62.13
2023-04-25T00:31:08.633Z,61.68
2023-04-25T00:36:11.441Z,60.16
2023-04-25T00:41:14.290Z,60.46
2023-04-25T00:46:17.137Z,60.06
2023-04-25T00:51:22.318Z,59.52
2023-04-25T00:56:25.134Z,59.37
2023-04-25T01:01:28.122Z,60.08
2023-04-25T01:06:32.385Z,58.91
2023-04-25T01:11:35.662Z,59.54
2023-04-25T01:16:38.912Z,58.66
2023-04-25T01:21:42.031Z,57.70
2023-04-25T01:26:51.176Z,56.98
2023-04-25T01:32:00.031Z,56.40
2023-04-25T01:37:05.676Z,55.60
2023-04-25T01:42:08.822Z,55.87
2023-04-25T01:47:12.539Z,55.63
2023-04-25T01:52:15.469Z,53.97
2023-04-25T01:57:18.470Z,54.16
2023-04-25T02:02:21.742Z,54.75
2023-04-25T02:07:24.659Z,51.85
2023-04-25T02:12:30.185Z,52.44
2023-04-25T02:17:55.521Z,50.99
2023-04-25T02:22:58.366Z,49.07
2023-04-25T02:28:01.355Z,49.16
2023-04-25T02:33:05.659Z,48.69
2023-04-25T02:38:08.667Z,47.76
2023-04-25T02:43:12.612Z,48.82
2023-04-25T02:48:15.469Z,48.74
2023-04-25T02:53:18.316Z,46.78
2023-04-25T02:58:25.511Z,46.67
2023-04-25T03:03:29.883Z,46.04
2023-04-25T03:08:33.897Z,46.91
2023-04-25T03:13:37.753Z,45.60
2023-04-25T03:18:41.378Z,45.54
2023-04-25T03:23:44.193Z,45.67
2023-04-25T03:28:46.995Z,44.84
2023-04-25T03:33:50.356Z,44.67
2023-04-25T03:38:56.531Z,44.96
2023-04-25T03:44:00.009Z,44.81
2023-04-25T03:49:03.600Z,44.76
2023-04-25T03:54:26.408Z,43.55
2023-04-25T03:59:39.487Z,43.53
2023-04-25T04:04:45.711Z,43.83
2023-04-25T04:09:49.523Z,43.54
2023-04-25T04:15:00.732Z,42.81
2023-04-25T04:20:05.106Z,42.48
2023-04-25T04:25:09.694Z,42.82
2023-04-25T04:30:32.841Z,42.14
2023-04-25T04:35:38.550Z,41.64
2023-04-25T04:40:43.114Z,41.47
2023-04-25T04:45:57.588Z,41.60
2023-04-25T04:51:20.557Z,41.36
2023-04-25T04:56:38.661Z,41.63
2023-04-25T05:02:00.200Z,40.46
2023-04-25T05:07:19.715Z,40.32
2023-04-25T05:12:37.346Z,39.73
2023-04-25T05:17:43.498Z,40.67
2023-04-25T05:23:15.067Z,39.46
2023-04-25T05:28:38.550Z,38.67
2023-04-25T05:34:08.464Z,38.72
2023-04-25T05:39:27.660Z,39.36
2023-04-25T05:44:53.189Z,39.58
2023-04-25T05:50:34.525Z,39.86
2023-04-25T05:55:41.125Z,39.71
2023-04-25T06:01:01.684Z,38.57
2023-04-25T06:06:04.978Z,38.87
2023-04-25T06:11:08.176Z,38.17
2023-04-25T06:16:11.602Z,38.04
2023-04-25T06:21:14.505Z,37.76
2023-04-25T06:26:17.457Z,37.83
2023-04-25T06:31:22.353Z,39.58
2023-04-25T06:36:28.998Z,46.54
2023-04-25T06:41:38.591Z,47.88
2023-04-25T06:46:43.997Z,46.71
2023-04-25T06:51:49.885Z,46.50
2023-04-25T06:56:52.643Z,46.47
2023-04-25T07:01:55.664Z,44.25
2023-04-25T07:07:04.038Z,43.17
2023-04-25T07:12:19.076Z,41.30
2023-04-25T07:17:21.929Z,40.67
2023-04-25T07:22:25.738Z,40.65
2023-04-25T07:27:29.265Z,38.70
2023-04-25T07:32:38.325Z,40.92
2023-04-25T07:37:41.216Z,41.03
2023-04-25T07:42:50.194Z,39.58
2023-04-25T07:47:59.081Z,40.93
2023-04-25T07:53:02.392Z,40.61
2023-04-25T07:58:11.435Z,40.72
2023-04-25T08:03:17.507Z,39.82
2023-04-25T08:08:21.214Z,41.07
2023-04-25T08:13:24.568Z,42.16
2023-04-25T08:18:28.968Z,41.32
2023-04-25T08:23:32.201Z,39.42
2023-04-25T08:28:40.874Z,41.72
2023-04-25T08:33:43.926Z,44.06
2023-04-25T08:39:08.420Z,43.94
2023-04-25T08:44:19.349Z,41.82
2023-04-25T08:49:22.675Z,40.26
2023-04-25T08:59:55.950Z,39.10
2023-04-25T09:05:00.160Z,39.80
2023-04-25T09:10:04.746Z,41.25
2023-04-25T09:10:28.994Z,39.61
2023-04-25T09:15:20.483Z,44.24
2023-04-25T09:21:14.888Z,45.70
2023-04-25T09:26:22.870Z,44.15
2023-04-25T09:31:26.953Z,42.80
2023-04-25T09:36:36.764Z,42.49
2023-04-25T09:41:58.443Z,41.51
2023-04-25T09:47:02.028Z,41.37
2023-04-25T09:52:06.591Z,40.45
2023-04-25T09:57:25.968Z,40.04
2023-04-25T10:02:32.903Z,39.91
2023-04-25T10:07:42.537Z,40.80
2023-04-25T10:12:50.874Z,40.82
2023-04-25T10:17:54.901Z,40.36
2023-04-25T10:23:01.300Z,40.10
2023-04-25T10:28:05.554Z,40.74
2023-04-25T10:33:19.223Z,40.73
2023-04-25T10:38:22.230Z,41.04
2023-04-25T10:43:48.032Z,40.35
2023-04-25T10:48:57.816Z,40.07
2023-04-25T10:54:10.310Z,39.10
2023-04-25T10:59:15.200Z,39.84
2023-04-25T11:04:25.248Z,39.47
2023-04-25T11:09:29.593Z,39.73
2023-04-25T11:14:33.175Z,40.43
2023-04-25T11:19:36.410Z,40.03
2023-04-25T11:24:39.600Z,39.11
2023-04-25T11:29:43.005Z,39.06
2023-04-25T11:34:49.235Z,39.97
2023-04-25T11:39:53.301Z,39.77
2023-04-25T11:44:56.327Z,38.98
2023-04-25T11:50:04.462Z,39.18
2023-04-25T11:55:18.196Z,39.64
2023-04-25T12:00:22.739Z,39.97
2023-04-25T12:05:32.704Z,39.80
2023-04-25T12:10:42.112Z,39.63
2023-04-25T12:15:45.294Z,38.26
2023-04-25T12:21:05.751Z,38.36
2023-04-25T12:26:23.386Z,39.74
2023-04-25T12:31:27.089Z,39.94
2023-04-25T12:36:33.183Z,39.21
2023-04-25T12:41:48.104Z,39.50
2023-04-25T12:46:51.607Z,39.55
2023-04-25T12:51:54.489Z,39.05
2023-04-25T12:56:57.869Z,40.21
2023-04-25T13:02:01.189Z,40.19
2023-04-25T13:07:07.176Z,40.15
2023-04-25T13:12:10.149Z,40.36
2023-04-25T13:17:12.944Z,41.03
2023-04-25T13:22:18.172Z,41.01
2023-04-25T13:27:20.814Z,40.67
2023-04-25T13:32:23.778Z,41.40
2023-04-25T13:37:26.645Z,40.93
2023-04-25T13:42:34.866Z,41.19
2023-04-25T13:47:40.832Z,41.73
2023-04-25T13:52:43.728Z,42.19
2023-04-25T13:57:47.100Z,42.67
2023-04-25T14:02:50.857Z,43.22
2023-04-25T14:07:53.852Z,43.66
2023-04-25T14:12:57.131Z,44.07
2023-04-25T14:18:03.136Z,44.17
2023-04-25T14:23:08.834Z,44.67
2023-04-25T14:28:12.144Z,45.00
2023-04-25T14:33:17.417Z,45.53
2023-04-25T14:38:24.513Z,45.59
2023-04-25T14:43:27.272Z,46.39
2023-04-25T14:48:30.932Z,47.10
2023-04-25T14:53:36.986Z,47.05
2023-04-25T14:58:41.544Z,47.51
2023-04-25T15:03:44.865Z,47.40
2023-04-25T15:08:47.736Z,47.74
2023-04-25T15:13:51.532Z,47.29
2023-04-25T15:18:54.536Z,47.16
2023-04-25T15:23:57.867Z,47.34
2023-04-25T15:29:00.611Z,47.54
2023-04-25T15:34:03.746Z,47.14
2023-04-25T15:39:06.464Z,47.00
2023-04-25T15:44:11.280Z,47.71
2023-04-25T15:49:14.184Z,48.03
2023-04-25T15:54:17.628Z,47.81
2023-04-25T15:59:20.552Z,47.58
2023-04-25T16:04:40.170Z,48.25
2023-04-25T16:09:43.138Z,48.16
2023-04-25T16:14:45.964Z,48.52
2023-04-25T16:19:50.683Z,48.24
2023-04-25T16:24:53.489Z,48.48
2023-04-25T16:29:56.245Z,48.03
2023-04-25T16:34:59.216Z,48.21
2023-04-25T16:40:02.035Z,48.27
2023-04-25T16:45:08.491Z,48.05
2023-04-25T16:50:11.797Z,46.72
2023-04-25T16:55:14.692Z,45.82
2023-04-25T17:00:18.593Z,44.98
2023-04-25T17:05:21.463Z,44.65
2023-04-25T17:10:24.330Z,43.99
2023-04-25T17:15:27.209Z,44.06
2023-04-25T17:20:30.014Z,43.96
2023-04-25T17:25:33.426Z,43.40
2023-04-25T17:30:36.292Z,43.49
2023-04-25T17:35:39.167Z,43.67
2023-04-25T17:40:41.999Z,43.72
2023-04-25T17:45:44.859Z,43.87
2023-04-25T17:50:47.751Z,43.76
2023-04-25T17:55:50.900Z,44.21
2023-04-25T18:00:53.931Z,44.51
2023-04-25T18:05:56.973Z,44.67
2023-04-25T18:10:59.796Z,44.49
2023-04-25T18:16:02.565Z,44.62
2023-04-25T18:21:07.998Z,45.13
2023-04-25T18:26:11.147Z,44.57
2023-04-25T18:31:16.363Z,45.06
2023-04-25T18:36:19.300Z,44.59
2023-04-25T18:46:38.093Z,44.35
2023-04-25T18:51:41.943Z,44.38
2023-04-25T18:56:44.713Z,44.35
2023-04-25T19:01:47.871Z,44.71
2023-04-25T19:06:51.615Z,44.29
2023-04-25T19:11:54.529Z,44.10
2023-04-25T19:16:59.585Z,44.05
2023-04-25T19:22:02.334Z,43.93
2023-04-25T19:27:05.071Z,44.05
2023-04-25T19:32:07.901Z,44.18
2023-04-25T19:37:10.797Z,44.16
2023-04-25T19:42:13.535Z,44.24
2023-04-25T19:47:16.338Z,44.27
2023-04-25T19:52:19.433Z,44.03
2023-04-25T19:57:22.793Z,43.76
2023-04-25T20:02:26.801Z,43.84
2023-04-25T20:07:30.121Z,43.72
2023-04-25T20:12:33.662Z,43.96
2023-04-25T20:17:37.382Z,44.06
2023-04-25T20:22:40.933Z,43.90
2023-04-25T20:27:43.798Z,43.90
2023-04-25T20:32:46.614Z,43.94
2023-04-25T20:37:51.318Z,44.27
2023-04-25T20:42:54.485Z,44.12
2023-04-25T20:47:57.309Z,43.79
2023-04-25T20:53:00.189Z,44.23
2023-04-25T20:58:03.662Z,44.32
2023-04-25T21:03:08.224Z,44.22
2023-04-25T21:08:11.094Z,44.40
2023-04-25T21:13:14.173Z,43.89
2023-04-25T21:18:17.092Z,44.07
2023-04-25T21:23:19.994Z,44.34
2023-04-25T21:28:23.751Z,44.99
2023-04-25T21:33:26.515Z,45.77
2023-04-25T21:38:29.439Z,45.60
2023-04-25T21:43:32.918Z,46.09
2023-04-25T21:48:35.640Z,46.77
2023-04-25T21:53:38.432Z,46.85
2023-04-25T21:58:41.239Z,47.22
2023-04-25T22:03:44.164Z,47.83
2023-04-25T22:08:47.174Z,48.32
2023-04-25T22:13:50.196Z,48.56
2023-04-25T22:18:53.730Z,48.51
2023-04-25T22:24:00.550Z,49.01
2023-04-25T22:29:04.136Z,49.40
2023-04-25T22:34:07.175Z,49.68
2023-04-25T22:39:10.420Z,50.34
2023-04-25T22:44:13.310Z,51.31
2023-04-25T22:49:16.192Z,50.63
2023-04-25T22:54:19.451Z,50.83
2023-04-25T22:59:22.384Z,50.73
2023-04-25T23:04:25.813Z,50.82
2023-04-25T23:09:28.645Z,51.25
2023-04-25T23:14:31.619Z,51.02
2023-04-25T23:19:34.724Z,51.78
2023-04-25T23:24:40.937Z,51.84
2023-04-25T23:29:43.815Z,51.72
2023-04-25T23:34:46.774Z,51.03
2023-04-25T23:39:52.860Z,50.76
2023-04-25T23:44:55.732Z,50.46
2023-04-25T23:50:02.008Z,50.03
2023-04-25T23:55:07.060Z,50.50
